Pays
Station

 

Conditions  météo  pour  Buckland, Buckland Airport  -  Etats-Unis    Etats-Unis

  
18 °C
    
 
 

METAR pour Buckland, Buckland Airport :

PABL 172356Z AUTO 18013G21KT 10SM BKN050 OVC085 18/07 A2996 RMK AO2 SLP149 T01830067 10194 20106 56012

 

Voici le bulletin pour Buckland, Buckland Airport - Etats-Unis.
 
Le bulletin a été fait il y a 43 minutes, à 23:56 UTC .
Le vent soufflait à la vitesse de 6.7 mètres par seconde avec des rafales jusqu'à 10.8 mètres par seconde de Sud (180°).
 
La température était de 18 °C, avec un point de rosée à 7 °C.
La pression atmosphérique était de 1015 hPa.
L'humidité relative était de 48.5%.
 
Il y avait 5 à 7/8ème de nébulosité à une hauteur de 1524 mètres. Le ciel était nuageux à partir d'une hauteur de 2591 mètres
 
La visibilité globale était de 16.1 kilomètres.
 

 
 
 

Pays :   A   B   C   D   E   F   G   H   I   J   K   L   M   N   O   P   Q   R   S   T   U   V   W   Y   Z

 

Partenaires :  Info Météo avec Met'info
Météo Marine avec MeteoMarine.net
Infos Site  |  Infos Légales  |  Crédits  |  Confidentialité
Contactez-nous  |  Ajouter aux favoris
© 2013-2018 METAR - Tous droits réservés